アルハンゲリスク の空港の天気 - METARとTAF

Arhangel'Sk ( ULAA / ARH ) - ロシア アルハンゲリスク
飛行場実況気象(Metar)
観測時間03/30 15:00 MSK (03/30 12:00 UTC)
風向・風速北西 6m/s
視程10km以上
天気現象
全天の4割程度の雲 雲底高度 610m
気温-4℃
湿度58%
気圧1012hPa
METARULAA 301200Z 32006MPS 280V010 9999 SCT020 M04/M11 Q1012 R26/390350 NOSIG RMK QFE757/1010
過去の天気等 Google飛行場航空写真 Wunderground天気予報

過去48時間のMETAR

飛行場予報(TAF)
発表時間: 3/30 13:59 MSK (3/30 10:59 UTC)
予報対象時間: 30日15時 MSK ~ 31日15時 MSK
風向・風速北西 8m/s 瞬間風速 14m/s
視程10km以上
全天の8割程度の雲 雲底高度 460m
全天の8割程度の雲 雲底高度 3,050m
30日15時 MSK ~ 30日21時 MSK に一時的に
風向・風速西北西 10m/s 瞬間風速 17m/s
視程1,000m
天気現象しゅう雪 高い地吹雪
全天の8割程度の雲 雲底高度 90m
全天の8割程度の積乱雲 雲底高度 300m
30日21時 MSK ~ 31日15時 MSK に一時的に
風向・風速西北西 9m/s 瞬間風速 15m/s
視程3,000m
天気現象弱いしゅう雪
全天の8割程度の雲 雲底高度 210m
全天の8割程度の積乱雲 雲底高度 370m
TAF ULAA 301059Z 3012/3112 32008G14MPS 9999 BKN015 BKN100
TEMPO 3012/3018 30010G17MPS 1000 SHSN BLSN BKN003 BKN010CB
TEMPO 3018/3112 29009G15MPS 3000 -SHSN BKN007 BKN012CB